sensor_id;sensor_type;location;lat;lon;timestamp;P1;durP1;ratioP1;P2;durP2;ratioP2
44670;SDS011;48397;53.016;-2.260;2022-09-17T00:01:29;14.98;;;7.18;;
44670;SDS011;48397;53.016;-2.260;2022-09-17T00:04:06;14.07;;;8.02;;
44670;SDS011;48397;53.016;-2.260;2022-09-17T00:06:34;17.58;;;8.98;;
44670;SDS011;48397;53.016;-2.260;2022-09-17T00:09:06;18.40;;;8.52;;
44670;SDS011;48397;53.016;-2.260;2022-09-17T00:11:35;16.25;;;8.52;;
44670;SDS011;48397;53.016;-2.260;2022-09-17T00:14:05;20.45;;;8.02;;
44670;SDS011;48397;53.016;-2.260;2022-09-17T00:16:37;14.68;;;7.97;;
44670;SDS011;48397;53.016;-2.260;2022-09-17T00:19:07;18.02;;;7.55;;
44670;SDS011;48397;53.016;-2.260;2022-09-17T00:21:40;14.35;;;7.28;;
44670;SDS011;48397;53.016;-2.260;2022-09-17T00:24:11;17.30;;;7.65;;
44670;SDS011;48397;53.016;-2.260;2022-09-17T00:26:40;13.07;;;7.07;;
44670;SDS011;48397;53.016;-2.260;2022-09-17T00:29:08;16.38;;;6.57;;
44670;SDS011;48397;53.016;-2.260;2022-09-17T00:31:37;12.63;;;6.57;;
44670;SDS011;48397;53.016;-2.260;2022-09-17T00:36:33;11.82;;;6.47;;
44670;SDS011;48397;53.016;-2.260;2022-09-17T00:39:03;14.13;;;7.35;;
44670;SDS011;48397;53.016;-2.260;2022-09-17T00:41:33;17.55;;;7.40;;
44670;SDS011;48397;53.016;-2.260;2022-09-17T00:47:11;15.35;;;8.20;;
44670;SDS011;48397;53.016;-2.260;2022-09-17T00:52:39;14.45;;;7.15;;
44670;SDS011;48397;53.016;-2.260;2022-09-17T00:58:13;17.65;;;8.05;;
44670;SDS011;48397;53.016;-2.260;2022-09-17T01:00:44;16.20;;;8.73;;
44670;SDS011;48397;53.016;-2.260;2022-09-17T01:03:13;16.35;;;8.10;;
44670;SDS011;48397;53.016;-2.260;2022-09-17T01:05:46;13.82;;;7.75;;
44670;SDS011;48397;53.016;-2.260;2022-09-17T01:14:37;14.07;;;7.20;;
44670;SDS011;48397;53.016;-2.260;2022-09-17T01:17:29;14.32;;;7.30;;
44670;SDS011;48397;53.016;-2.260;2022-09-17T01:25:37;14.10;;;6.35;;
44670;SDS011;48397;53.016;-2.260;2022-09-17T01:34:18;11.82;;;6.10;;
44670;SDS011;48397;53.016;-2.260;2022-09-17T01:36:59;13.32;;;7.00;;
44670;SDS011;48397;53.016;-2.260;2022-09-17T01:39:33;16.52;;;7.32;;
44670;SDS011;48397;53.016;-2.260;2022-09-17T01:44:39;15.73;;;7.72;;
44670;SDS011;48397;53.016;-2.260;2022-09-17T01:50:11;14.95;;;6.93;;
44670;SDS011;48397;53.016;-2.260;2022-09-17T01:52:44;13.38;;;7.32;;
44670;SDS011;48397;53.016;-2.260;2022-09-17T01:55:15;13.35;;;5.13;;
44670;SDS011;48397;53.016;-2.260;2022-09-17T01:57:59;13.77;;;6.22;;
44670;SDS011;48397;53.016;-2.260;2022-09-17T02:00:33;12.93;;;6.47;;
44670;SDS011;48397;53.016;-2.260;2022-09-17T02:05:45;13.38;;;6.00;;
44670;SDS011;48397;53.016;-2.260;2022-09-17T02:08:27;15.43;;;6.70;;
44670;SDS011;48397;53.016;-2.260;2022-09-17T02:11:17;12.80;;;6.30;;
44670;SDS011;48397;53.016;-2.260;2022-09-17T02:13:56;14.93;;;7.03;;
44670;SDS011;48397;53.016;-2.260;2022-09-17T02:16:27;15.35;;;7.45;;
44670;SDS011;48397;53.016;-2.260;2022-09-17T02:30:03;13.23;;;6.30;;
44670;SDS011;48397;53.016;-2.260;2022-09-17T02:32:32;13.00;;;6.25;;
44670;SDS011;48397;53.016;-2.260;2022-09-17T02:37:27;14.50;;;6.82;;
44670;SDS011;48397;53.016;-2.260;2022-09-17T02:39:55;12.93;;;8.18;;
44670;SDS011;48397;53.016;-2.260;2022-09-17T02:56:06;15.30;;;8.13;;
44670;SDS011;48397;53.016;-2.260;2022-09-17T02:58:49;12.52;;;6.85;;
44670;SDS011;48397;53.016;-2.260;2022-09-17T03:01:34;18.98;;;8.02;;
44670;SDS011;48397;53.016;-2.260;2022-09-17T03:04:07;14.50;;;7.13;;
44670;SDS011;48397;53.016;-2.260;2022-09-17T03:06:39;14.43;;;7.50;;
44670;SDS011;48397;53.016;-2.260;2022-09-17T03:09:11;20.15;;;8.77;;
44670;SDS011;48397;53.016;-2.260;2022-09-17T03:11:42;16.23;;;7.40;;
44670;SDS011;48397;53.016;-2.260;2022-09-17T03:14:10;13.60;;;6.70;;
44670;SDS011;48397;53.016;-2.260;2022-09-17T03:16:38;12.25;;;6.45;;
44670;SDS011;48397;53.016;-2.260;2022-09-17T03:19:06;15.65;;;7.43;;
44670;SDS011;48397;53.016;-2.260;2022-09-17T03:21:34;12.07;;;6.82;;
44670;SDS011;48397;53.016;-2.260;2022-09-17T03:24:02;17.42;;;7.10;;
44670;SDS011;48397;53.016;-2.260;2022-09-17T03:26:30;18.63;;;9.45;;
44670;SDS011;48397;53.016;-2.260;2022-09-17T03:31:25;18.85;;;9.60;;
44670;SDS011;48397;53.016;-2.260;2022-09-17T03:33:55;23.63;;;10.35;;
44670;SDS011;48397;53.016;-2.260;2022-09-17T03:36:23;18.42;;;8.93;;
44670;SDS011;48397;53.016;-2.260;2022-09-17T03:38:54;13.70;;;6.82;;
44670;SDS011;48397;53.016;-2.260;2022-09-17T03:41:22;12.65;;;6.65;;
44670;SDS011;48397;53.016;-2.260;2022-09-17T03:43:51;15.18;;;6.85;;
44670;SDS011;48397;53.016;-2.260;2022-09-17T03:48:47;14.38;;;6.82;;
44670;SDS011;48397;53.016;-2.260;2022-09-17T03:51:14;16.05;;;7.60;;
44670;SDS011;48397;53.016;-2.260;2022-09-17T03:53:43;18.98;;;7.65;;
44670;SDS011;48397;53.016;-2.260;2022-09-17T03:56:11;12.27;;;5.95;;
44670;SDS011;48397;53.016;-2.260;2022-09-17T03:58:39;13.50;;;7.53;;
44670;SDS011;48397;53.016;-2.260;2022-09-17T04:01:07;14.88;;;7.60;;
44670;SDS011;48397;53.016;-2.260;2022-09-17T04:03:35;16.38;;;8.57;;
44670;SDS011;48397;53.016;-2.260;2022-09-17T04:06:03;24.50;;;10.30;;
44670;SDS011;48397;53.016;-2.260;2022-09-17T04:08:31;25.35;;;9.95;;
44670;SDS011;48397;53.016;-2.260;2022-09-17T04:10:59;20.53;;;9.87;;
44670;SDS011;48397;53.016;-2.260;2022-09-17T04:13:27;16.92;;;8.18;;
44670;SDS011;48397;53.016;-2.260;2022-09-17T04:15:55;17.95;;;6.70;;
44670;SDS011;48397;53.016;-2.260;2022-09-17T04:18:23;14.13;;;6.70;;
44670;SDS011;48397;53.016;-2.260;2022-09-17T04:20:51;14.90;;;7.18;;
44670;SDS011;48397;53.016;-2.260;2022-09-17T04:25:46;13.23;;;7.50;;
44670;SDS011;48397;53.016;-2.260;2022-09-17T04:28:14;16.17;;;8.02;;
44670;SDS011;48397;53.016;-2.260;2022-09-17T04:30:42;13.27;;;6.82;;
44670;SDS011;48397;53.016;-2.260;2022-09-17T04:35:38;12.48;;;6.30;;
44670;SDS011;48397;53.016;-2.260;2022-09-17T04:38:06;13.20;;;6.72;;
44670;SDS011;48397;53.016;-2.260;2022-09-17T04:40:33;11.35;;;6.72;;
44670;SDS011;48397;53.016;-2.260;2022-09-17T04:43:01;13.90;;;7.22;;
44670;SDS011;48397;53.016;-2.260;2022-09-17T04:45:30;13.73;;;7.27;;
44670;SDS011;48397;53.016;-2.260;2022-09-17T04:47:59;18.10;;;9.07;;
44670;SDS011;48397;53.016;-2.260;2022-09-17T04:50:27;17.67;;;8.38;;
44670;SDS011;48397;53.016;-2.260;2022-09-17T04:52:56;17.93;;;9.27;;
44670;SDS011;48397;53.016;-2.260;2022-09-17T04:57:53;14.97;;;7.07;;
44670;SDS011;48397;53.016;-2.260;2022-09-17T05:00:22;10.70;;;6.00;;
44670;SDS011;48397;53.016;-2.260;2022-09-17T05:02:52;15.03;;;7.00;;
44670;SDS011;48397;53.016;-2.260;2022-09-17T05:05:21;15.40;;;7.47;;
44670;SDS011;48397;53.016;-2.260;2022-09-17T05:07:50;19.90;;;8.57;;
44670;SDS011;48397;53.016;-2.260;2022-09-17T05:10:18;15.43;;;7.90;;
44670;SDS011;48397;53.016;-2.260;2022-09-17T05:12:48;24.80;;;10.40;;
44670;SDS011;48397;53.016;-2.260;2022-09-17T05:15:17;18.87;;;9.70;;
44670;SDS011;48397;53.016;-2.260;2022-09-17T05:17:45;15.53;;;7.40;;
44670;SDS011;48397;53.016;-2.260;2022-09-17T05:22:44;13.97;;;7.23;;
44670;SDS011;48397;53.016;-2.260;2022-09-17T05:25:14;11.67;;;7.07;;
44670;SDS011;48397;53.016;-2.260;2022-09-17T05:27:43;17.23;;;7.77;;
44670;SDS011;48397;53.016;-2.260;2022-09-17T05:32:39;12.70;;;6.72;;
44670;SDS011;48397;53.016;-2.260;2022-09-17T05:35:07;14.35;;;7.43;;
44670;SDS011;48397;53.016;-2.260;2022-09-17T05:37:35;19.23;;;8.47;;
44670;SDS011;48397;53.016;-2.260;2022-09-17T05:40:04;17.90;;;8.50;;
44670;SDS011;48397;53.016;-2.260;2022-09-17T05:42:33;18.70;;;9.77;;
44670;SDS011;48397;53.016;-2.260;2022-09-17T05:45:01;18.65;;;9.98;;
44670;SDS011;48397;53.016;-2.260;2022-09-17T05:47:29;18.17;;;9.37;;
44670;SDS011;48397;53.016;-2.260;2022-09-17T05:49:57;20.58;;;10.52;;
44670;SDS011;48397;53.016;-2.260;2022-09-17T05:52:26;22.77;;;11.50;;
44670;SDS011;48397;53.016;-2.260;2022-09-17T05:54:55;16.67;;;9.70;;
44670;SDS011;48397;53.016;-2.260;2022-09-17T05:57:23;20.13;;;9.47;;
44670;SDS011;48397;53.016;-2.260;2022-09-17T05:59:51;18.25;;;10.18;;
44670;SDS011;48397;53.016;-2.260;2022-09-17T06:02:19;23.90;;;12.05;;
44670;SDS011;48397;53.016;-2.260;2022-09-17T06:04:46;20.92;;;11.23;;
44670;SDS011;48397;53.016;-2.260;2022-09-17T06:07:14;25.48;;;11.82;;
44670;SDS011;48397;53.016;-2.260;2022-09-17T06:09:42;28.45;;;13.45;;
44670;SDS011;48397;53.016;-2.260;2022-09-17T06:12:10;24.05;;;12.55;;
44670;SDS011;48397;53.016;-2.260;2022-09-17T06:14:38;27.85;;;12.57;;
44670;SDS011;48397;53.016;-2.260;2022-09-17T06:17:06;19.27;;;11.32;;
44670;SDS011;48397;53.016;-2.260;2022-09-17T06:19:34;19.88;;;9.80;;
44670;SDS011;48397;53.016;-2.260;2022-09-17T06:22:02;22.58;;;11.27;;
44670;SDS011;48397;53.016;-2.260;2022-09-17T06:24:31;25.35;;;11.80;;
44670;SDS011;48397;53.016;-2.260;2022-09-17T06:26:59;30.30;;;11.07;;
44670;SDS011;48397;53.016;-2.260;2022-09-17T06:29:27;30.33;;;13.15;;
44670;SDS011;48397;53.016;-2.260;2022-09-17T06:31:55;40.65;;;14.90;;
44670;SDS011;48397;53.016;-2.260;2022-09-17T06:34:24;44.22;;;14.98;;
44670;SDS011;48397;53.016;-2.260;2022-09-17T06:36:52;39.72;;;13.63;;
44670;SDS011;48397;53.016;-2.260;2022-09-17T06:39:20;21.10;;;9.65;;
44670;SDS011;48397;53.016;-2.260;2022-09-17T06:41:50;21.38;;;10.55;;
44670;SDS011;48397;53.016;-2.260;2022-09-17T06:44:20;29.90;;;11.80;;
44670;SDS011;48397;53.016;-2.260;2022-09-17T06:46:48;26.85;;;10.88;;
44670;SDS011;48397;53.016;-2.260;2022-09-17T06:49:17;27.20;;;11.88;;
44670;SDS011;48397;53.016;-2.260;2022-09-17T06:51:46;25.65;;;11.25;;
44670;SDS011;48397;53.016;-2.260;2022-09-17T06:54:13;26.70;;;11.60;;
44670;SDS011;48397;53.016;-2.260;2022-09-17T06:56:41;26.25;;;11.10;;
44670;SDS011;48397;53.016;-2.260;2022-09-17T07:01:37;26.40;;;12.27;;
44670;SDS011;48397;53.016;-2.260;2022-09-17T07:04:05;31.05;;;12.95;;
44670;SDS011;48397;53.016;-2.260;2022-09-17T07:09:00;27.55;;;12.10;;
44670;SDS011;48397;53.016;-2.260;2022-09-17T07:11:29;26.05;;;11.02;;
44670;SDS011;48397;53.016;-2.260;2022-09-17T07:13:58;26.17;;;11.25;;
44670;SDS011;48397;53.016;-2.260;2022-09-17T07:16:26;25.73;;;11.23;;
44670;SDS011;48397;53.016;-2.260;2022-09-17T07:18:56;23.30;;;11.55;;
44670;SDS011;48397;53.016;-2.260;2022-09-17T07:21:24;22.77;;;11.57;;
44670;SDS011;48397;53.016;-2.260;2022-09-17T07:26:20;22.63;;;10.98;;
44670;SDS011;48397;53.016;-2.260;2022-09-17T07:33:44;22.83;;;11.25;;
44670;SDS011;48397;53.016;-2.260;2022-09-17T07:38:44;26.83;;;11.82;;
44670;SDS011;48397;53.016;-2.260;2022-09-17T07:41:14;22.23;;;10.57;;
44670;SDS011;48397;53.016;-2.260;2022-09-17T07:43:43;13.25;;;7.13;;
44670;SDS011;48397;53.016;-2.260;2022-09-17T07:46:15;19.77;;;7.57;;
44670;SDS011;48397;53.016;-2.260;2022-09-17T07:48:46;13.77;;;6.75;;
44670;SDS011;48397;53.016;-2.260;2022-09-17T07:51:22;10.15;;;4.47;;
44670;SDS011;48397;53.016;-2.260;2022-09-17T07:53:54;10.18;;;5.28;;
44670;SDS011;48397;53.016;-2.260;2022-09-17T07:56:25;13.63;;;5.80;;
44670;SDS011;48397;53.016;-2.260;2022-09-17T07:58:53;15.00;;;7.10;;
44670;SDS011;48397;53.016;-2.260;2022-09-17T08:01:22;10.18;;;5.05;;
44670;SDS011;48397;53.016;-2.260;2022-09-17T08:03:53;11.02;;;5.57;;
44670;SDS011;48397;53.016;-2.260;2022-09-17T08:06:23;6.30;;;3.90;;
44670;SDS011;48397;53.016;-2.260;2022-09-17T08:08:55;8.55;;;4.80;;
44670;SDS011;48397;53.016;-2.260;2022-09-17T08:11:25;7.53;;;4.75;;
44670;SDS011;48397;53.016;-2.260;2022-09-17T08:14:14;8.57;;;4.55;;
44670;SDS011;48397;53.016;-2.260;2022-09-17T08:16:44;8.50;;;4.40;;
44670;SDS011;48397;53.016;-2.260;2022-09-17T08:19:13;11.35;;;3.55;;
44670;SDS011;48397;53.016;-2.260;2022-09-17T08:21:44;9.50;;;4.85;;
44670;SDS011;48397;53.016;-2.260;2022-09-17T08:26:39;4.38;;;2.00;;
44670;SDS011;48397;53.016;-2.260;2022-09-17T08:29:07;5.38;;;2.95;;
44670;SDS011;48397;53.016;-2.260;2022-09-17T08:31:37;5.60;;;2.53;;
44670;SDS011;48397;53.016;-2.260;2022-09-17T08:36:33;4.53;;;2.78;;
44670;SDS011;48397;53.016;-2.260;2022-09-17T08:39:02;40.88;;;4.05;;
44670;SDS011;48397;53.016;-2.260;2022-09-17T08:46:35;6.90;;;3.10;;
44670;SDS011;48397;53.016;-2.260;2022-09-17T08:49:12;7.93;;;2.72;;
44670;SDS011;48397;53.016;-2.260;2022-09-17T08:54:54;4.93;;;2.17;;
44670;SDS011;48397;53.016;-2.260;2022-09-17T09:00:19;6.07;;;2.72;;
44670;SDS011;48397;53.016;-2.260;2022-09-17T09:05:44;4.88;;;2.28;;
44670;SDS011;48397;53.016;-2.260;2022-09-17T09:08:19;6.18;;;2.53;;
44670;SDS011;48397;53.016;-2.260;2022-09-17T09:10:57;9.30;;;3.10;;
44670;SDS011;48397;53.016;-2.260;2022-09-17T09:13:28;4.78;;;1.75;;
44670;SDS011;48397;53.016;-2.260;2022-09-17T09:16:04;4.68;;;2.35;;
44670;SDS011;48397;53.016;-2.260;2022-09-17T09:18:39;6.85;;;2.92;;
44670;SDS011;48397;53.016;-2.260;2022-09-17T09:24:08;7.57;;;1.92;;
44670;SDS011;48397;53.016;-2.260;2022-09-17T09:34:42;3.33;;;1.27;;
44670;SDS011;48397;53.016;-2.260;2022-09-17T09:37:25;3.25;;;2.10;;
44670;SDS011;48397;53.016;-2.260;2022-09-17T09:40:00;2.20;;;1.10;;
44670;SDS011;48397;53.016;-2.260;2022-09-17T09:42:42;3.33;;;1.38;;
44670;SDS011;48397;53.016;-2.260;2022-09-17T09:45:13;3.67;;;1.30;;
44670;SDS011;48397;53.016;-2.260;2022-09-17T09:48:03;2.38;;;1.45;;
44670;SDS011;48397;53.016;-2.260;2022-09-17T09:50:55;3.40;;;1.42;;
44670;SDS011;48397;53.016;-2.260;2022-09-17T09:59:12;2.75;;;1.45;;
44670;SDS011;48397;53.016;-2.260;2022-09-17T10:01:41;2.58;;;0.90;;
44670;SDS011;48397;53.016;-2.260;2022-09-17T10:04:29;3.42;;;1.30;;
44670;SDS011;48397;53.016;-2.260;2022-09-17T10:07:00;3.03;;;1.50;;
44670;SDS011;48397;53.016;-2.260;2022-09-17T10:09:32;3.25;;;1.80;;
44670;SDS011;48397;53.016;-2.260;2022-09-17T10:12:04;4.13;;;1.30;;
44670;SDS011;48397;53.016;-2.260;2022-09-17T10:14:36;4.28;;;1.63;;
44670;SDS011;48397;53.016;-2.260;2022-09-17T10:22:34;2.90;;;1.30;;
44670;SDS011;48397;53.016;-2.260;2022-09-17T10:25:16;5.82;;;2.47;;
44670;SDS011;48397;53.016;-2.260;2022-09-17T10:27:44;6.43;;;2.40;;
44670;SDS011;48397;53.016;-2.260;2022-09-17T10:30:15;5.10;;;2.60;;
44670;SDS011;48397;53.016;-2.260;2022-09-17T10:35:46;2.03;;;1.05;;
44670;SDS011;48397;53.016;-2.260;2022-09-17T10:38:30;5.85;;;1.85;;
44670;SDS011;48397;53.016;-2.260;2022-09-17T10:41:11;2.10;;;1.15;;
44670;SDS011;48397;53.016;-2.260;2022-09-17T10:43:51;3.00;;;1.35;;
44670;SDS011;48397;53.016;-2.260;2022-09-17T10:46:20;1.55;;;0.93;;
44670;SDS011;48397;53.016;-2.260;2022-09-17T10:49:09;2.35;;;1.00;;
44670;SDS011;48397;53.016;-2.260;2022-09-17T11:00:37;7.18;;;1.17;;
44670;SDS011;48397;53.016;-2.260;2022-09-17T11:08:52;2.85;;;1.33;;
44670;SDS011;48397;53.016;-2.260;2022-09-17T11:20:53;4.28;;;1.35;;
44670;SDS011;48397;53.016;-2.260;2022-09-17T11:23:07;2.10;;;1.00;;
44670;SDS011;48397;53.016;-2.260;2022-09-17T11:42:32;4.40;;;1.05;;
44670;SDS011;48397;53.016;-2.260;2022-09-17T11:45:12;3.58;;;1.20;;
44670;SDS011;48397;53.016;-2.260;2022-09-17T11:47:59;4.10;;;1.38;;
44670;SDS011;48397;53.016;-2.260;2022-09-17T11:50:38;1.80;;;1.00;;
44670;SDS011;48397;53.016;-2.260;2022-09-17T11:55:50;1.52;;;0.98;;
44670;SDS011;48397;53.016;-2.260;2022-09-17T11:58:54;3.03;;;1.02;;
44670;SDS011;48397;53.016;-2.260;2022-09-17T12:15:41;3.00;;;1.10;;
44670;SDS011;48397;53.016;-2.260;2022-09-17T12:20:58;1.33;;;0.80;;
44670;SDS011;48397;53.016;-2.260;2022-09-17T12:29:28;1.15;;;0.88;;
44670;SDS011;48397;53.016;-2.260;2022-09-17T12:34:28;1.40;;;0.98;;
44670;SDS011;48397;53.016;-2.260;2022-09-17T12:37:16;2.30;;;0.82;;
44670;SDS011;48397;53.016;-2.260;2022-09-17T12:46:01;1.00;;;0.80;;
44670;SDS011;48397;53.016;-2.260;2022-09-17T12:54:12;1.42;;;0.85;;
44670;SDS011;48397;53.016;-2.260;2022-09-17T12:59:33;0.95;;;0.60;;
44670;SDS011;48397;53.016;-2.260;2022-09-17T13:05:43;1.20;;;0.82;;
44670;SDS011;48397;53.016;-2.260;2022-09-17T13:08:35;2.92;;;0.80;;
44670;SDS011;48397;53.016;-2.260;2022-09-17T13:22:21;1.98;;;0.82;;
44670;SDS011;48397;53.016;-2.260;2022-09-17T13:25:06;2.75;;;0.88;;
44670;SDS011;48397;53.016;-2.260;2022-09-17T13:27:36;1.13;;;0.77;;
44670;SDS011;48397;53.016;-2.260;2022-09-17T13:30:05;2.80;;;0.88;;
44670;SDS011;48397;53.016;-2.260;2022-09-17T13:37:39;1.55;;;0.98;;
44670;SDS011;48397;53.016;-2.260;2022-09-17T13:40:36;0.63;;;0.60;;
44670;SDS011;48397;53.016;-2.260;2022-09-17T13:46:03;3.03;;;1.05;;
44670;SDS011;48397;53.016;-2.260;2022-09-17T13:48:25;1.88;;;0.90;;
44670;SDS011;48397;53.016;-2.260;2022-09-17T13:50:57;1.75;;;0.85;;
44670;SDS011;48397;53.016;-2.260;2022-09-17T13:54:06;0.75;;;0.60;;
44670;SDS011;48397;53.016;-2.260;2022-09-17T13:56:36;0.95;;;0.85;;
44670;SDS011;48397;53.016;-2.260;2022-09-17T13:59:11;1.40;;;0.75;;
44670;SDS011;48397;53.016;-2.260;2022-09-17T14:01:54;1.73;;;0.75;;
44670;SDS011;48397;53.016;-2.260;2022-09-17T14:13:01;2.13;;;0.80;;
44670;SDS011;48397;53.016;-2.260;2022-09-17T14:21:03;0.60;;;0.52;;
44670;SDS011;48397;53.016;-2.260;2022-09-17T14:23:41;1.48;;;0.77;;
44670;SDS011;48397;53.016;-2.260;2022-09-17T14:26:13;2.22;;;0.98;;
44670;SDS011;48397;53.016;-2.260;2022-09-17T14:31:56;1.27;;;0.77;;
44670;SDS011;48397;53.016;-2.260;2022-09-17T14:34:24;0.93;;;0.60;;
44670;SDS011;48397;53.016;-2.260;2022-09-17T14:36:53;1.30;;;0.60;;
44670;SDS011;48397;53.016;-2.260;2022-09-17T14:39:23;1.55;;;0.70;;
44670;SDS011;48397;53.016;-2.260;2022-09-17T14:41:54;0.82;;;0.40;;
44670;SDS011;48397;53.016;-2.260;2022-09-17T14:46:54;4.55;;;0.60;;
44670;SDS011;48397;53.016;-2.260;2022-09-17T14:49:24;0.98;;;0.65;;
44670;SDS011;48397;53.016;-2.260;2022-09-17T14:51:55;1.33;;;0.60;;
44670;SDS011;48397;53.016;-2.260;2022-09-17T14:54:27;1.65;;;0.75;;
44670;SDS011;48397;53.016;-2.260;2022-09-17T15:04:59;1.33;;;0.77;;
44670;SDS011;48397;53.016;-2.260;2022-09-17T15:07:29;2.30;;;0.70;;
44670;SDS011;48397;53.016;-2.260;2022-09-17T15:10:07;1.33;;;0.70;;
44670;SDS011;48397;53.016;-2.260;2022-09-17T15:12:39;1.02;;;0.52;;
44670;SDS011;48397;53.016;-2.260;2022-09-17T15:15:10;0.52;;;0.40;;
44670;SDS011;48397;53.016;-2.260;2022-09-17T15:17:53;1.05;;;0.40;;
44670;SDS011;48397;53.016;-2.260;2022-09-17T15:20:22;0.85;;;0.63;;
44670;SDS011;48397;53.016;-2.260;2022-09-17T15:22:56;2.80;;;0.57;;
44670;SDS011;48397;53.016;-2.260;2022-09-17T15:25:40;1.80;;;0.40;;
44670;SDS011;48397;53.016;-2.260;2022-09-17T15:28:18;0.20;;;0.20;;
44670;SDS011;48397;53.016;-2.260;2022-09-17T15:31:03;1.15;;;0.70;;
44670;SDS011;48397;53.016;-2.260;2022-09-17T15:33:32;0.75;;;0.40;;
44670;SDS011;48397;53.016;-2.260;2022-09-17T15:36:02;0.85;;;0.50;;
44670;SDS011;48397;53.016;-2.260;2022-09-17T15:38:48;1.48;;;0.60;;
44670;SDS011;48397;53.016;-2.260;2022-09-17T15:41:19;4.72;;;0.85;;
44670;SDS011;48397;53.016;-2.260;2022-09-17T15:43:51;2.83;;;0.73;;
44670;SDS011;48397;53.016;-2.260;2022-09-17T15:46:39;1.83;;;0.50;;
44670;SDS011;48397;53.016;-2.260;2022-09-17T15:49:41;0.70;;;0.43;;
44670;SDS011;48397;53.016;-2.260;2022-09-17T15:54:54;1.52;;;0.80;;
44670;SDS011;48397;53.016;-2.260;2022-09-17T15:57:21;1.23;;;0.60;;
44670;SDS011;48397;53.016;-2.260;2022-09-17T15:59:51;0.98;;;0.50;;
44670;SDS011;48397;53.016;-2.260;2022-09-17T16:02:27;0.73;;;0.50;;
44670;SDS011;48397;53.016;-2.260;2022-09-17T16:07:41;0.85;;;0.70;;
44670;SDS011;48397;53.016;-2.260;2022-09-17T16:10:12;1.02;;;0.68;;
44670;SDS011;48397;53.016;-2.260;2022-09-17T16:12:41;2.42;;;0.73;;
44670;SDS011;48397;53.016;-2.260;2022-09-17T16:15:11;0.73;;;0.60;;
44670;SDS011;48397;53.016;-2.260;2022-09-17T16:17:43;2.95;;;0.52;;
44670;SDS011;48397;53.016;-2.260;2022-09-17T16:20:21;2.58;;;0.80;;
44670;SDS011;48397;53.016;-2.260;2022-09-17T16:22:51;1.17;;;0.50;;
44670;SDS011;48397;53.016;-2.260;2022-09-17T16:25:23;2.20;;;0.60;;
44670;SDS011;48397;53.016;-2.260;2022-09-17T16:27:57;1.52;;;0.93;;
44670;SDS011;48397;53.016;-2.260;2022-09-17T16:30:28;1.83;;;0.70;;
44670;SDS011;48397;53.016;-2.260;2022-09-17T16:35:24;6.55;;;0.95;;
44670;SDS011;48397;53.016;-2.260;2022-09-17T16:37:53;1.15;;;0.50;;
44670;SDS011;48397;53.016;-2.260;2022-09-17T16:40:22;0.50;;;0.50;;
44670;SDS011;48397;53.016;-2.260;2022-09-17T16:42:53;0.98;;;0.50;;
44670;SDS011;48397;53.016;-2.260;2022-09-17T16:47:54;1.08;;;0.52;;
44670;SDS011;48397;53.016;-2.260;2022-09-17T16:50:22;0.52;;;0.40;;
44670;SDS011;48397;53.016;-2.260;2022-09-17T16:52:51;0.70;;;0.60;;
44670;SDS011;48397;53.016;-2.260;2022-09-17T16:55:19;3.47;;;0.60;;
44670;SDS011;48397;53.016;-2.260;2022-09-17T16:57:48;0.85;;;0.40;;
44670;SDS011;48397;53.016;-2.260;2022-09-17T17:02:52;1.10;;;0.50;;
44670;SDS011;48397;53.016;-2.260;2022-09-17T17:05:22;1.08;;;0.70;;
44670;SDS011;48397;53.016;-2.260;2022-09-17T17:07:51;1.05;;;0.68;;
44670;SDS011;48397;53.016;-2.260;2022-09-17T17:10:21;1.42;;;0.85;;
44670;SDS011;48397;53.016;-2.260;2022-09-17T17:12:50;0.70;;;0.45;;
44670;SDS011;48397;53.016;-2.260;2022-09-17T17:15:18;1.17;;;0.65;;
44670;SDS011;48397;53.016;-2.260;2022-09-17T17:17:47;0.93;;;0.50;;
44670;SDS011;48397;53.016;-2.260;2022-09-17T17:20:15;3.83;;;0.82;;
44670;SDS011;48397;53.016;-2.260;2022-09-17T17:25:12;3.08;;;0.45;;
44670;SDS011;48397;53.016;-2.260;2022-09-17T17:27:40;2.58;;;0.52;;
44670;SDS011;48397;53.016;-2.260;2022-09-17T17:30:08;1.35;;;0.60;;
44670;SDS011;48397;53.016;-2.260;2022-09-17T17:32:42;2.53;;;1.00;;
44670;SDS011;48397;53.016;-2.260;2022-09-17T17:35:12;2.20;;;0.85;;
44670;SDS011;48397;53.016;-2.260;2022-09-17T17:37:39;2.05;;;0.90;;
44670;SDS011;48397;53.016;-2.260;2022-09-17T17:42:36;0.85;;;0.50;;
44670;SDS011;48397;53.016;-2.260;2022-09-17T17:45:05;2.53;;;0.70;;
44670;SDS011;48397;53.016;-2.260;2022-09-17T17:47:33;2.95;;;0.90;;
44670;SDS011;48397;53.016;-2.260;2022-09-17T17:50:02;2.30;;;0.70;;
44670;SDS011;48397;53.016;-2.260;2022-09-17T17:52:30;0.85;;;0.60;;
44670;SDS011;48397;53.016;-2.260;2022-09-17T17:54:58;2.05;;;0.75;;
44670;SDS011;48397;53.016;-2.260;2022-09-17T17:57:26;1.65;;;1.20;;
44670;SDS011;48397;53.016;-2.260;2022-09-17T17:59:53;1.77;;;0.82;;
44670;SDS011;48397;53.016;-2.260;2022-09-17T18:02:21;1.30;;;0.80;;
44670;SDS011;48397;53.016;-2.260;2022-09-17T18:04:49;1.45;;;0.80;;
44670;SDS011;48397;53.016;-2.260;2022-09-17T18:07:16;0.95;;;0.57;;
44670;SDS011;48397;53.016;-2.260;2022-09-17T18:09:44;1.88;;;0.90;;
44670;SDS011;48397;53.016;-2.260;2022-09-17T18:12:13;5.43;;;1.02;;
44670;SDS011;48397;53.016;-2.260;2022-09-17T18:14:40;5.63;;;0.90;;
44670;SDS011;48397;53.016;-2.260;2022-09-17T18:17:08;0.65;;;0.65;;
44670;SDS011;48397;53.016;-2.260;2022-09-17T18:22:03;4.05;;;1.00;;
44670;SDS011;48397;53.016;-2.260;2022-09-17T18:24:31;2.33;;;1.10;;
44670;SDS011;48397;53.016;-2.260;2022-09-17T18:26:59;2.25;;;0.60;;
44670;SDS011;48397;53.016;-2.260;2022-09-17T18:29:27;2.55;;;1.20;;
44670;SDS011;48397;53.016;-2.260;2022-09-17T18:31:55;3.22;;;1.33;;
44670;SDS011;48397;53.016;-2.260;2022-09-17T18:34:23;3.50;;;1.60;;
44670;SDS011;48397;53.016;-2.260;2022-09-17T18:36:50;4.43;;;1.33;;
44670;SDS011;48397;53.016;-2.260;2022-09-17T18:39:18;2.67;;;0.98;;
44670;SDS011;48397;53.016;-2.260;2022-09-17T18:42:07;3.13;;;1.20;;
44670;SDS011;48397;53.016;-2.260;2022-09-17T18:47:03;1.27;;;0.95;;
44670;SDS011;48397;53.016;-2.260;2022-09-17T18:49:31;2.47;;;1.05;;
44670;SDS011;48397;53.016;-2.260;2022-09-17T18:51:58;2.22;;;0.80;;
44670;SDS011;48397;53.016;-2.260;2022-09-17T18:54:26;1.88;;;1.05;;
44670;SDS011;48397;53.016;-2.260;2022-09-17T18:56:54;2.53;;;1.10;;
44670;SDS011;48397;53.016;-2.260;2022-09-17T19:01:49;2.85;;;1.15;;
44670;SDS011;48397;53.016;-2.260;2022-09-17T19:04:17;3.22;;;1.02;;
44670;SDS011;48397;53.016;-2.260;2022-09-17T19:06:45;0.88;;;0.80;;
44670;SDS011;48397;53.016;-2.260;2022-09-17T19:09:13;5.80;;;1.33;;
44670;SDS011;48397;53.016;-2.260;2022-09-17T19:11:40;2.67;;;1.00;;
44670;SDS011;48397;53.016;-2.260;2022-09-17T19:14:08;1.75;;;0.98;;
44670;SDS011;48397;53.016;-2.260;2022-09-17T19:19:04;4.68;;;1.23;;
44670;SDS011;48397;53.016;-2.260;2022-09-17T19:21:32;3.00;;;1.30;;
44670;SDS011;48397;53.016;-2.260;2022-09-17T19:24:00;2.00;;;1.00;;
44670;SDS011;48397;53.016;-2.260;2022-09-17T19:26:29;5.72;;;1.30;;
44670;SDS011;48397;53.016;-2.260;2022-09-17T19:28:57;3.90;;;1.33;;
44670;SDS011;48397;53.016;-2.260;2022-09-17T19:31:26;2.20;;;1.13;;
44670;SDS011;48397;53.016;-2.260;2022-09-17T19:33:55;3.15;;;1.25;;
44670;SDS011;48397;53.016;-2.260;2022-09-17T19:36:24;1.52;;;0.98;;
44670;SDS011;48397;53.016;-2.260;2022-09-17T19:41:20;3.58;;;1.08;;
44670;SDS011;48397;53.016;-2.260;2022-09-17T19:43:52;2.35;;;1.10;;
44670;SDS011;48397;53.016;-2.260;2022-09-17T19:46:21;1.17;;;0.90;;
44670;SDS011;48397;53.016;-2.260;2022-09-17T19:48:54;2.67;;;1.20;;
44670;SDS011;48397;53.016;-2.260;2022-09-17T19:51:24;1.90;;;1.00;;
44670;SDS011;48397;53.016;-2.260;2022-09-17T19:53:52;1.80;;;1.10;;
44670;SDS011;48397;53.016;-2.260;2022-09-17T19:56:21;3.17;;;1.33;;
44670;SDS011;48397;53.016;-2.260;2022-09-17T19:58:50;3.15;;;1.52;;